Time;durP1;ratioP1;P1;durP2;ratioP2;P2;SDS_P1;SDS_P2;PMS_P1;PMS_P2;Temp;Humidity;BMP_temperature;BMP_pressure;BME280_temperature;BME280_humidity;BME280_pressure;Samples;Min_cycle;Max_cycle;Signal;HPM_P1;HPM_P2
2021/11/15 00:01:14;;;;;;;21.43;13.97;;;8.90;62.50;;;;;;4968946;28;20561;-83
2021/11/15 00:03:42;;;;;;;20.90;14.00;;;8.90;62.50;;;;;;4956446;28;20923;-83
2021/11/15 00:06:08;;;;;;;14.83;12.80;;;9.00;62.40;;;;;;4962396;28;20412;-83
2021/11/15 00:08:34;;;;;;;16.97;12.70;;;8.90;62.50;;;;;;4963142;28;20429;-82
2021/11/15 00:11:00;;;;;;;17.73;13.00;;;9.00;62.50;;;;;;4971148;28;20923;-82
2021/11/15 00:13:25;;;;;;;17.67;13.67;;;9.00;62.30;;;;;;4971857;28;20240;-84
2021/11/15 00:15:51;;;;;;;16.57;14.60;;;9.00;62.70;;;;;;4971210;28;20170;-82
2021/11/15 00:18:17;;;;;;;14.97;11.83;;;8.90;62.60;;;;;;4973052;28;20198;-82
2021/11/15 00:20:43;;;;;;;17.70;13.43;;;9.00;63.00;;;;;;4971996;28;20855;-81
2021/11/15 00:23:09;;;;;;;13.87;11.40;;;9.00;62.40;;;;;;4972063;28;20195;-81
2021/11/15 00:25:35;;;;;;;15.70;12.40;;;9.00;62.60;;;;;;4973086;28;20586;-81
2021/11/15 00:28:02;;;;;;;16.70;13.50;;;9.00;62.50;;;;;;4972606;28;20269;-81
2021/11/15 00:30:28;;;;;;;14.83;12.47;;;8.90;63.00;;;;;;4971708;28;20422;-82
2021/11/15 00:32:53;;;;;;;13.40;11.43;;;8.90;63.00;;;;;;4970482;28;20531;-81
2021/11/15 00:35:19;;;;;;;13.63;12.10;;;9.00;62.90;;;;;;4971276;28;20510;-81
2021/11/15 00:37:45;;;;;;;14.97;12.97;;;9.00;63.30;;;;;;4970127;28;20181;-82
2021/11/15 00:40:14;;;;;;;17.20;12.20;;;9.00;62.60;;;;;;4970429;28;20478;-84
2021/11/15 00:42:41;;;;;;;17.20;13.40;;;8.90;62.60;;;;;;4969447;28;20178;-84
2021/11/15 00:45:08;;;;;;;15.90;12.97;;;8.90;62.60;;;;;;4970042;28;20417;-84
2021/11/15 00:47:34;;;;;;;15.57;12.93;;;8.90;62.70;;;;;;4969814;28;20472;-84
2021/11/15 00:50:00;;;;;;;13.10;11.70;;;8.90;63.30;;;;;;4970371;28;20454;-91
2021/11/15 00:52:25;;;;;;;19.77;12.67;;;8.90;62.40;;;;;;4969332;28;20406;-84
2021/11/15 00:54:51;;;;;;;14.13;11.07;;;8.90;62.40;;;;;;4969905;28;20250;-85
2021/11/15 00:57:17;;;;;;;13.30;11.90;;;8.90;62.80;;;;;;4968924;28;20517;-84
2021/11/15 00:59:42;;;;;;;14.03;12.60;;;8.90;62.80;;;;;;4969547;28;20182;-84
2021/11/15 01:02:08;;;;;;;16.17;13.17;;;8.90;62.40;;;;;;4968933;28;20217;-82
2021/11/15 01:04:34;;;;;;;16.63;12.77;;;8.90;62.90;;;;;;4969015;28;20624;-83
2021/11/15 01:06:59;;;;;;;12.50;11.20;;;8.90;62.30;;;;;;4968598;28;20285;-83
2021/11/15 01:09:25;;;;;;;14.03;10.17;;;8.90;62.60;;;;;;4969537;28;20178;-83
2021/11/15 01:11:52;;;;;;;14.40;12.20;;;8.90;62.10;;;;;;4968824;28;20179;-83
2021/11/15 01:14:18;;;;;;;14.57;10.57;;;8.90;62.90;;;;;;4969229;28;20469;-84
2021/11/15 01:16:45;;;;;;;13.43;11.60;;;9.00;62.30;;;;;;4970830;28;20426;-85
2021/11/15 01:19:12;;;;;;;12.13;10.90;;;9.00;61.80;;;;;;4970212;28;20437;-85
2021/11/15 01:21:38;;;;;;;14.33;12.30;;;8.90;61.00;;;;;;4969643;28;20809;-86
2021/11/15 01:24:04;;;;;;;11.20;9.63;;;9.00;61.10;;;;;;4970207;28;20763;-85
2021/11/15 01:26:30;;;;;;;13.03;10.87;;;9.00;61.10;;;;;;4971324;28;20414;-85
2021/11/15 01:28:56;;;;;;;11.50;10.30;;;9.00;61.10;;;;;;4970043;28;20472;-83
2021/11/15 01:31:22;;;;;;;11.13;10.00;;;9.00;60.40;;;;;;4970337;28;20252;-83
2021/11/15 01:33:49;;;;;;;13.63;10.20;;;8.90;60.50;;;;;;4970332;28;20531;-85
2021/11/15 01:36:15;;;;;;;12.47;9.27;;;8.90;60.30;;;;;;4970566;28;20536;-84
2021/11/15 01:38:41;;;;;;;11.73;10.43;;;8.90;60.70;;;;;;4970663;28;20425;-84
2021/11/15 01:41:07;;;;;;;12.47;10.87;;;8.90;60.00;;;;;;4970288;28;20179;-84
2021/11/15 01:43:34;;;;;;;11.30;10.20;;;8.90;60.40;;;;;;4970368;28;20175;-85
2021/11/15 01:46:00;;;;;;;14.83;9.73;;;8.90;60.50;;;;;;4970178;28;20415;-84
2021/11/15 01:48:26;;;;;;;12.47;9.40;;;9.00;60.50;;;;;;4970700;28;20422;-84
2021/11/15 01:50:51;;;;;;;11.07;9.07;;;8.90;59.60;;;;;;4970414;28;20949;-85
2021/11/15 01:53:17;;;;;;;9.83;8.53;;;8.90;58.80;;;;;;4969767;28;20206;-84
2021/11/15 01:55:45;;;;;;;12.70;9.90;;;8.90;59.10;;;;;;4969866;28;20181;-84
2021/11/15 01:58:12;;;;;;;10.40;8.47;;;8.90;58.80;;;;;;4968406;28;20770;-85
2021/11/15 02:00:43;;;;;;;11.60;8.50;;;8.90;59.20;;;;;;4968372;28;20474;-85
2021/11/15 02:03:09;;;;;;;10.40;8.90;;;8.90;58.20;;;;;;4969593;28;20414;-85
2021/11/15 02:05:36;;;;;;;9.50;7.70;;;8.80;58.80;;;;;;4969432;28;20410;-85
2021/11/15 02:08:02;;;;;;;9.97;7.50;;;8.80;59.00;;;;;;4967797;28;20485;-84
2021/11/15 02:10:28;;;;;;;9.93;8.40;;;8.90;58.20;;;;;;4968461;28;20421;-85
2021/11/15 02:12:54;;;;;;;8.90;8.00;;;8.90;58.20;;;;;;4968306;28;21043;-84
2021/11/15 02:15:20;;;;;;;10.83;7.63;;;8.80;58.20;;;;;;4968292;28;20178;-83
2021/11/15 02:17:47;;;;;;;11.53;7.77;;;8.80;58.20;;;;;;4968839;28;20181;-82
2021/11/15 02:20:15;;;;;;;10.00;8.80;;;8.80;57.80;;;;;;4968414;28;20410;-82
2021/11/15 02:22:41;;;;;;;10.03;8.70;;;8.80;57.50;;;;;;4968213;28;20433;-83
2021/11/15 02:25:08;;;;;;;9.53;8.10;;;8.80;57.90;;;;;;4970807;28;20422;-83
2021/11/15 02:27:35;;;;;;;10.23;8.03;;;8.80;58.00;;;;;;4971691;28;20707;-84
2021/11/15 02:30:03;;;;;;;11.20;9.07;;;8.80;57.60;;;;;;4971153;28;20483;-83
2021/11/15 02:32:28;;;;;;;8.67;7.40;;;8.70;57.80;;;;;;4971588;28;20502;-83
2021/11/15 02:34:55;;;;;;;11.13;8.10;;;8.80;57.20;;;;;;4971079;28;20545;-84
2021/11/15 02:37:20;;;;;;;11.10;8.60;;;8.80;57.10;;;;;;4971487;28;20182;-84
2021/11/15 02:39:46;;;;;;;10.67;7.87;;;8.80;56.70;;;;;;4971395;28;20409;-85
2021/11/15 02:42:12;;;;;;;10.20;7.90;;;8.70;57.50;;;;;;4970876;28;20175;-85
2021/11/15 02:44:38;;;;;;;10.47;8.13;;;8.70;56.80;;;;;;4971185;28;20187;-85
2021/11/15 02:47:04;;;;;;;11.40;7.80;;;8.60;57.20;;;;;;4971134;28;20189;-84
2021/11/15 02:49:31;;;;;;;10.63;8.00;;;8.60;57.50;;;;;;4971112;28;20410;-84
2021/11/15 02:51:57;;;;;;;10.40;7.63;;;8.60;57.60;;;;;;4971365;28;20425;-83
2021/11/15 02:54:24;;;;;;;8.43;7.60;;;8.60;57.40;;;;;;4970827;28;20871;-84
2021/11/15 02:56:51;;;;;;;10.00;8.80;;;8.70;57.50;;;;;;4970479;28;20414;-84
2021/11/15 02:59:17;;;;;;;8.87;7.70;;;8.70;57.50;;;;;;4970330;28;20485;-85
2021/11/15 03:01:46;;;;;;;12.37;8.37;;;8.60;58.00;;;;;;4970760;28;20510;-82
2021/11/15 03:04:15;;;;;;;10.77;9.10;;;8.70;57.40;;;;;;4969887;28;20186;-82
2021/11/15 03:06:40;;;;;;;10.57;9.03;;;8.70;57.50;;;;;;4970188;28;20418;-82
2021/11/15 03:09:07;;;;;;;10.07;8.73;;;8.70;58.20;;;;;;4970232;28;20505;-83
2021/11/15 03:11:32;;;;;;;8.43;7.53;;;8.60;57.70;;;;;;4969294;28;20201;-83
2021/11/15 03:13:58;;;;;;;12.23;9.53;;;8.60;57.70;;;;;;4969881;28;20997;-83
2021/11/15 03:16:24;;;;;;;11.40;9.67;;;8.70;57.80;;;;;;4969827;28;20185;-83
2021/11/15 03:18:49;;;;;;;11.63;9.30;;;8.70;58.00;;;;;;4970824;28;20701;-83
2021/11/15 03:21:20;;;;;;;11.43;9.27;;;8.70;57.70;;;;;;4970392;28;20651;-85
2021/11/15 03:23:51;;;;;;;11.23;10.03;;;8.60;58.10;;;;;;4970297;28;20191;-83
2021/11/15 03:26:17;;;;;;;12.53;9.90;;;8.60;58.00;;;;;;4970139;28;20418;-82
2021/11/15 03:28:46;;;;;;;11.20;10.00;;;8.60;58.00;;;;;;4969382;28;20476;-83
2021/11/15 03:31:20;;;;;;;11.33;10.10;;;8.60;58.40;;;;;;4969975;28;20269;-85
2021/11/15 03:33:47;;;;;;;15.03;10.90;;;8.60;58.80;;;;;;4969294;28;20832;-84
2021/11/15 03:36:13;;;;;;;13.80;11.83;;;8.60;59.10;;;;;;4969285;28;20417;-83
2021/11/15 03:38:40;;;;;;;13.27;11.07;;;8.60;59.80;;;;;;4972319;28;20414;-83
2021/11/15 03:41:06;;;;;;;14.37;12.03;;;8.50;59.70;;;;;;4971134;28;20410;-84
2021/11/15 03:43:33;;;;;;;16.90;12.10;;;8.60;60.40;;;;;;4961887;28;20410;-83
2021/11/15 03:45:59;;;;;;;15.40;13.87;;;8.60;60.50;;;;;;4969466;28;20817;-84
2021/11/15 03:48:25;;;;;;;15.77;12.47;;;8.60;60.60;;;;;;4959622;28;20561;-84
2021/11/15 03:50:54;;;;;;;17.20;12.87;;;8.60;60.40;;;;;;4964887;28;20458;-84
2021/11/15 03:53:21;;;;;;;15.37;13.53;;;8.50;60.60;;;;;;4971740;28;20536;-84
2021/11/15 03:55:47;;;;;;;14.13;12.37;;;8.60;60.60;;;;;;4970769;28;20882;-84
2021/11/15 03:58:13;;;;;;;14.30;11.57;;;8.50;60.60;;;;;;4970344;28;20422;-83
2021/11/15 04:00:41;;;;;;;18.30;12.97;;;8.50;60.60;;;;;;4969807;28;20632;-84
2021/11/15 04:03:18;;;;;;;14.37;12.90;;;8.40;60.40;;;;;;4966234;28;20274;-84
2021/11/15 04:06:00;;;;;;;15.70;12.20;;;8.40;60.60;;;;;;4970698;28;20436;-84
2021/11/15 04:08:25;;;;;;;13.37;11.63;;;8.50;60.70;;;;;;4961744;28;20426;-84
2021/11/15 04:10:52;;;;;;;11.20;10.10;;;8.50;59.90;;;;;;4955695;28;20418;-84
2021/11/15 04:13:18;;;;;;;12.47;9.73;;;8.40;58.80;;;;;;4949756;29;20543;-84
2021/11/15 04:15:46;;;;;;;13.27;10.03;;;8.40;59.00;;;;;;4949346;29;20426;-83
2021/11/15 04:18:15;;;;;;;11.33;9.07;;;8.50;59.20;;;;;;4949542;29;20178;-83
2021/11/15 04:20:41;;;;;;;10.27;9.37;;;8.50;59.00;;;;;;4949907;29;20431;-82
2021/11/15 04:23:07;;;;;;;15.53;11.03;;;8.50;59.10;;;;;;4949259;28;20762;-83
2021/11/15 04:25:33;;;;;;;16.93;11.77;;;8.50;58.50;;;;;;4985007;28;20584;-83
2021/11/15 04:27:59;;;;;;;16.83;11.87;;;8.50;58.80;;;;;;4971391;28;20772;-83
2021/11/15 04:30:30;;;;;;;14.27;10.70;;;8.50;58.90;;;;;;4986513;28;20621;-84
2021/11/15 04:32:56;;;;;;;14.90;12.20;;;8.50;59.40;;;;;;4967633;28;20219;-85
2021/11/15 04:35:22;;;;;;;14.40;12.67;;;8.40;60.00;;;;;;4967600;28;20450;-82
2021/11/15 04:37:48;;;;;;;14.17;12.53;;;8.40;60.30;;;;;;4965936;28;20509;-83
2021/11/15 04:40:14;;;;;;;12.67;11.20;;;8.40;60.50;;;;;;4965661;28;20637;-82
2021/11/15 04:42:40;;;;;;;13.57;11.60;;;8.40;60.20;;;;;;4966447;28;20451;-81
2021/11/15 04:45:06;;;;;;;14.77;13.07;;;8.40;60.60;;;;;;4970076;28;20910;-81
2021/11/15 04:47:32;;;;;;;14.90;12.50;;;8.40;60.50;;;;;;4950488;28;20180;-82
2021/11/15 04:49:58;;;;;;;14.10;11.60;;;8.40;60.60;;;;;;4949761;29;20809;-82
2021/11/15 04:52:24;;;;;;;14.00;9.83;;;8.40;60.20;;;;;;4949166;29;20422;-81
2021/11/15 04:54:50;;;;;;;10.60;9.50;;;8.40;60.00;;;;;;4949129;29;20203;-83
2021/11/15 04:57:17;;;;;;;11.80;10.13;;;8.40;59.40;;;;;;4950524;29;20420;-81
2021/11/15 04:59:43;;;;;;;12.20;9.67;;;8.40;58.70;;;;;;4949858;28;20183;-82
2021/11/15 05:02:09;;;;;;;10.00;9.00;;;8.50;59.80;;;;;;4949227;29;20446;-82
2021/11/15 05:04:35;;;;;;;11.83;9.70;;;8.30;58.20;;;;;;4949769;29;20908;-82
2021/11/15 05:07:00;;;;;;;10.30;9.20;;;8.20;59.20;;;;;;4950117;29;20423;-83
2021/11/15 05:09:26;;;;;;;11.20;9.30;;;8.40;58.40;;;;;;4949382;29;20515;-80
2021/11/15 05:11:52;;;;;;;11.17;9.83;;;8.30;57.40;;;;;;4950020;29;20214;-82
2021/11/15 05:14:18;;;;;;;10.83;9.23;;;8.20;58.60;;;;;;4951182;28;20293;-82
2021/11/15 05:16:44;;;;;;;9.97;8.90;;;8.30;58.50;;;;;;4948810;29;20193;-82
2021/11/15 05:19:09;;;;;;;11.63;9.90;;;8.20;58.00;;;;;;4949680;29;20517;-82
2021/11/15 05:21:35;;;;;;;11.47;9.80;;;8.30;58.10;;;;;;4949976;29;20289;-82
2021/11/15 05:24:01;;;;;;;10.30;9.20;;;8.30;57.80;;;;;;4950412;29;20210;-82
2021/11/15 05:26:28;;;;;;;10.77;9.67;;;8.30;58.40;;;;;;4951619;28;20178;-81
2021/11/15 05:28:54;;;;;;;8.93;8.03;;;8.40;58.10;;;;;;4952633;28;20182;-81
2021/11/15 05:31:19;;;;;;;11.67;9.70;;;8.30;58.10;;;;;;4951770;28;20415;-81
2021/11/15 05:33:45;;;;;;;13.90;10.20;;;8.20;58.40;;;;;;4950912;29;20207;-81
2021/11/15 05:36:11;;;;;;;11.70;9.17;;;8.20;58.30;;;;;;4951153;29;20326;-82
2021/11/15 05:38:37;;;;;;;12.77;9.27;;;8.30;57.80;;;;;;4953255;28;20421;-83
2021/11/15 05:41:03;;;;;;;10.47;9.40;;;8.20;58.30;;;;;;4952318;29;20421;-82
2021/11/15 05:43:29;;;;;;;15.73;10.53;;;8.20;58.70;;;;;;4952777;29;20182;-84
2021/11/15 05:45:54;;;;;;;11.90;10.70;;;8.20;59.10;;;;;;4952301;29;20427;-83
2021/11/15 05:48:20;;;;;;;12.30;11.10;;;8.30;59.20;;;;;;4951838;29;20194;-83
2021/11/15 05:50:47;;;;;;;11.50;10.30;;;8.30;59.60;;;;;;4951938;29;20185;-84
2021/11/15 05:53:15;;;;;;;12.17;9.00;;;8.30;59.60;;;;;;4953809;29;20195;-84
2021/11/15 05:55:41;;;;;;;14.23;10.83;;;8.30;59.90;;;;;;4952068;29;20781;-84
2021/11/15 05:58:07;;;;;;;15.00;11.77;;;8.20;59.70;;;;;;4952626;28;20422;-82
2021/11/15 06:00:34;;;;;;;13.40;11.20;;;8.30;59.90;;;;;;4956255;29;20178;-85
2021/11/15 06:03:01;;;;;;;15.45;11.93;;;8.30;60.00;;;;;;4956312;29;20346;-84
2021/11/15 06:05:27;;;;;;;10.77;9.70;;;8.30;59.30;;;;;;4956141;29;20234;-83
2021/11/15 06:07:54;;;;;;;11.93;9.87;;;8.30;59.00;;;;;;4954946;29;20194;-82
2021/11/15 06:10:21;;;;;;;12.27;10.77;;;8.30;59.30;;;;;;4955493;29;20423;-83
2021/11/15 06:12:47;;;;;;;12.07;9.77;;;8.30;59.30;;;;;;4956226;29;20457;-81
2021/11/15 06:15:15;;;;;;;10.33;9.23;;;8.20;59.30;;;;;;4964251;28;20481;-82
2021/11/15 06:17:41;;;;;;;11.40;10.20;;;8.30;59.30;;;;;;4964424;28;20443;-81
2021/11/15 06:20:09;;;;;;;11.67;9.23;;;8.30;59.20;;;;;;4970723;28;20469;-84
2021/11/15 06:22:35;;;;;;;16.37;10.50;;;8.30;59.20;;;;;;4973463;28;20472;-84
2021/11/15 06:25:10;;;;;;;10.77;9.30;;;8.30;58.80;;;;;;4973019;28;20469;-85
2021/11/15 06:27:36;;;;;;;10.47;9.37;;;8.30;58.50;;;;;;4977665;28;20218;-83
2021/11/15 06:30:05;;;;;;;12.87;9.60;;;8.30;58.70;;;;;;4972562;28;20489;-83
2021/11/15 06:32:31;;;;;;;13.27;11.43;;;8.30;58.70;;;;;;4971626;28;20430;-83
2021/11/15 06:34:59;;;;;;;13.23;10.17;;;8.30;58.40;;;;;;4971814;28;20461;-80
2021/11/15 06:37:26;;;;;;;10.80;9.17;;;8.30;58.40;;;;;;4970784;28;20454;-78
2021/11/15 06:39:52;;;;;;;10.10;8.90;;;8.20;58.60;;;;;;4971017;28;20423;-80
2021/11/15 06:42:18;;;;;;;11.03;9.20;;;8.20;58.60;;;;;;4971348;28;20515;-80
2021/11/15 06:44:44;;;;;;;15.77;9.90;;;8.20;58.90;;;;;;4971252;28;20194;-80
2021/11/15 06:47:09;;;;;;;14.60;10.30;;;8.20;58.80;;;;;;4971948;28;20186;-83
2021/11/15 06:49:36;;;;;;;10.80;9.30;;;8.20;59.00;;;;;;4971800;28;20789;-81
2021/11/15 06:52:02;;;;;;;12.43;10.67;;;8.30;59.30;;;;;;4972937;28;20191;-81
2021/11/15 06:54:28;;;;;;;10.50;9.50;;;8.20;59.80;;;;;;4988987;28;20464;-81
2021/11/15 06:56:53;;;;;;;14.60;10.27;;;8.30;59.40;;;;;;4956735;28;20431;-79
2021/11/15 06:59:19;;;;;;;13.43;11.57;;;8.30;59.10;;;;;;4981151;28;20182;-81
2021/11/15 07:01:46;;;;;;;12.93;10.40;;;8.20;59.30;;;;;;4985955;28;20210;-81
2021/11/15 07:04:12;;;;;;;12.47;10.50;;;8.10;59.60;;;;;;4971296;28;20944;-82
2021/11/15 07:06:39;;;;;;;13.10;11.70;;;8.20;59.60;;;;;;4971108;28;20423;-83
2021/11/15 07:09:09;;;;;;;12.13;9.90;;;8.20;60.40;;;;;;4985675;28;20185;-82
2021/11/15 07:11:36;;;;;;;18.50;11.87;;;8.30;59.70;;;;;;4964267;28;20549;-81
2021/11/15 07:14:03;;;;;;;11.83;10.57;;;8.30;60.20;;;;;;4963256;28;20469;-81
2021/11/15 07:16:29;;;;;;;12.47;11.00;;;8.30;59.00;;;;;;4985739;28;20434;-81
2021/11/15 07:18:55;;;;;;;12.80;10.60;;;8.20;59.90;;;;;;4973574;28;20426;-80
2021/11/15 07:21:22;;;;;;;12.40;10.57;;;8.20;60.40;;;;;;4985709;28;20200;-81
2021/11/15 07:23:49;;;;;;;11.30;10.10;;;8.30;60.00;;;;;;4966164;28;20213;-81
2021/11/15 07:26:15;;;;;;;14.33;11.27;;;8.30;59.80;;;;;;4963671;28;20429;-81
2021/11/15 07:28:42;;;;;;;13.63;10.23;;;8.30;59.20;;;;;;4970728;28;20786;-81
2021/11/15 07:31:08;;;;;;;18.17;13.63;;;8.20;59.20;;;;;;4970378;28;20997;-83
2021/11/15 07:33:34;;;;;;;13.87;11.27;;;8.30;59.40;;;;;;4971796;28;20555;-82
2021/11/15 07:36:00;;;;;;;13.77;11.00;;;8.20;59.50;;;;;;4972253;28;20415;-81
2021/11/15 07:38:26;;;;;;;14.37;10.63;;;8.30;60.40;;;;;;4973686;28;20417;-81
2021/11/15 07:40:51;;;;;;;14.20;11.73;;;8.30;60.40;;;;;;4973648;28;20185;-82
2021/11/15 07:43:17;;;;;;;21.27;11.20;;;8.20;59.90;;;;;;4973340;28;20281;-81
2021/11/15 07:45:45;;;;;;;15.50;10.73;;;8.20;59.80;;;;;;4973893;28;20541;-82
2021/11/15 07:48:11;;;;;;;14.53;10.67;;;8.20;59.90;;;;;;4973688;28;20466;-81
2021/11/15 07:50:37;;;;;;;13.07;10.93;;;8.30;60.40;;;;;;4974941;28;20422;-82
2021/11/15 07:53:05;;;;;;;13.37;10.20;;;8.30;60.10;;;;;;4973719;28;20433;-82
2021/11/15 07:55:31;;;;;;;12.67;11.10;;;8.30;59.40;;;;;;4973660;28;20422;-83
2021/11/15 07:57:59;;;;;;;16.10;11.60;;;8.20;59.50;;;;;;4973668;28;20505;-83
2021/11/15 08:00:25;;;;;;;12.90;11.10;;;8.20;60.00;;;;;;4973692;28;20793;-83
2021/11/15 08:02:51;;;;;;;14.60;10.20;;;8.20;59.90;;;;;;4973480;28;20417;-83
2021/11/15 08:05:19;;;;;;;13.60;10.57;;;8.20;59.80;;;;;;4974970;28;20432;-82
2021/11/15 08:07:46;;;;;;;12.67;10.67;;;8.10;60.30;;;;;;4973441;28;20491;-83
2021/11/15 08:10:14;;;;;;;15.30;10.73;;;8.20;60.40;;;;;;4973655;28;20910;-82
2021/11/15 08:12:45;;;;;;;11.23;9.57;;;8.20;60.40;;;;;;4973718;28;20504;-82
2021/11/15 08:15:14;;;;;;;11.70;10.50;;;8.20;60.40;;;;;;4973556;28;20426;-82
2021/11/15 08:17:42;;;;;;;14.13;10.13;;;8.30;60.50;;;;;;4973134;28;20422;-81
2021/11/15 08:20:32;;;;;;;13.00;10.30;;;8.20;60.40;;;;;;4973245;28;20417;-82
2021/11/15 08:23:04;;;;;;;13.87;10.60;;;8.30;60.40;;;;;;4972335;28;20442;-82
2021/11/15 08:26:11;;;;;;;12.77;10.90;;;8.20;61.60;;;;;;4973198;28;20464;-82
2021/11/15 08:28:37;;;;;;;12.57;11.23;;;8.10;61.90;;;;;;4972671;28;20425;-82
2021/11/15 08:31:08;;;;;;;11.90;10.50;;;8.10;61.60;;;;;;4973322;28;20418;-82
2021/11/15 08:33:38;;;;;;;11.70;10.10;;;8.10;61.70;;;;;;4973697;28;20478;-81
2021/11/15 08:36:17;;;;;;;12.00;10.80;;;8.10;61.60;;;;;;4973750;28;20418;-82
2021/11/15 08:38:48;;;;;;;13.07;11.37;;;8.20;61.50;;;;;;4972982;28;20452;-82
2021/11/15 08:41:18;;;;;;;11.27;10.00;;;8.10;61.50;;;;;;4972698;28;20425;-82
2021/11/15 08:43:44;;;;;;;12.73;11.17;;;8.20;61.90;;;;;;4972662;28;20922;-82
2021/11/15 08:46:15;;;;;;;12.60;11.13;;;8.30;61.30;;;;;;4972643;28;20418;-81
2021/11/15 08:48:45;;;;;;;12.70;11.40;;;8.30;61.10;;;;;;4972792;28;20683;-82
2021/11/15 08:51:13;;;;;;;13.98;11.63;;;8.10;61.10;;;;;;4972734;28;20824;-83
2021/11/15 08:53:39;;;;;;;13.23;11.90;;;8.20;61.70;;;;;;4972610;28;20281;-83
2021/11/15 08:56:06;;;;;;;15.17;10.83;;;8.10;61.80;;;;;;4972566;28;20417;-83
2021/11/15 08:58:32;;;;;;;13.27;11.17;;;8.10;61.30;;;;;;4972425;28;20800;-83
2021/11/15 09:00:58;;;;;;;16.60;12.40;;;8.20;62.50;;;;;;4972593;28;20428;-84
2021/11/15 09:03:23;;;;;;;14.90;11.60;;;8.20;62.10;;;;;;4972393;28;20429;-83
2021/11/15 09:05:50;;;;;;;12.50;9.73;;;8.20;61.90;;;;;;4972566;28;20186;-83
2021/11/15 09:08:21;;;;;;;13.27;11.07;;;8.30;61.30;;;;;;4972278;28;20433;-83
2021/11/15 09:10:46;;;;;;;13.57;11.20;;;8.30;60.40;;;;;;4972279;28;20519;-84
2021/11/15 09:13:15;;;;;;;15.97;12.60;;;8.30;61.10;;;;;;4972188;28;20503;-82
2021/11/15 09:15:41;;;;;;;14.10;11.57;;;8.30;60.50;;;;;;4972448;28;20174;-82
2021/11/15 09:18:07;;;;;;;14.57;12.00;;;8.30;61.60;;;;;;4972656;28;20425;-83
2021/11/15 09:20:33;;;;;;;15.00;12.00;;;8.30;60.40;;;;;;4972723;28;20421;-82
2021/11/15 09:23:00;;;;;;;13.93;11.80;;;8.30;60.40;;;;;;4971873;28;20434;-83
2021/11/15 09:25:27;;;;;;;13.37;11.63;;;8.30;60.40;;;;;;4972664;28;20473;-83
2021/11/15 09:27:52;;;;;;;15.40;13.03;;;8.30;60.40;;;;;;4972265;28;20421;-85
2021/11/15 09:30:18;;;;;;;12.47;10.73;;;8.30;60.50;;;;;;4972238;28;20453;-83
2021/11/15 09:32:44;;;;;;;14.60;11.83;;;8.30;60.50;;;;;;4973337;28;20229;-83
2021/11/15 09:35:10;;;;;;;22.83;18.27;;;8.40;59.90;;;;;;4975978;28;20461;-84
2021/11/15 09:37:37;;;;;;;17.90;16.10;;;8.30;59.70;;;;;;4976014;28;20414;-84
2021/11/15 09:40:06;;;;;;;16.00;12.70;;;8.40;59.30;;;;;;4975828;28;20418;-84
2021/11/15 09:42:32;;;;;;;18.60;15.53;;;8.40;59.50;;;;;;4977364;28;20497;-84
2021/11/15 09:44:58;;;;;;;13.97;12.50;;;8.40;58.70;;;;;;4976205;28;20922;-85
2021/11/15 09:47:23;;;;;;;13.13;11.77;;;8.40;58.80;;;;;;4976106;28;20426;-83
2021/11/15 09:49:50;;;;;;;14.80;11.50;;;8.40;58.30;;;;;;4976201;28;20182;-83
2021/11/15 09:52:15;;;;;;;13.60;11.90;;;8.30;58.50;;;;;;4975871;28;20182;-83
2021/11/15 09:54:44;;;;;;;14.33;12.67;;;8.40;58.80;;;;;;4976026;28;20808;-83
2021/11/15 09:57:12;;;;;;;13.30;11.80;;;8.50;58.90;;;;;;4975860;28;20178;-83
2021/11/15 09:59:37;;;;;;;13.77;12.47;;;8.40;58.60;;;;;;4975820;28;20545;-84
2021/11/15 10:02:03;;;;;;;14.57;11.20;;;8.40;58.90;;;;;;4976016;28;20421;-82
2021/11/15 10:04:29;;;;;;;14.90;12.13;;;8.40;58.80;;;;;;4976748;28;20205;-81
2021/11/15 10:06:57;;;;;;;13.27;11.73;;;8.40;59.10;;;;;;4976132;28;20418;-83
2021/11/15 10:09:32;;;;;;;12.17;10.87;;;8.50;58.70;;;;;;4977321;28;20277;-82
2021/11/15 10:11:59;;;;;;;13.60;11.40;;;8.50;58.10;;;;;;4975468;28;20417;-88
2021/11/15 10:14:25;;;;;;;14.47;12.67;;;8.50;58.60;;;;;;4976023;28;20465;-87
2021/11/15 10:17:01;;;;;;;13.17;10.47;;;8.50;58.90;;;;;;4975755;28;20919;-88
2021/11/15 10:19:28;;;;;;;12.93;11.07;;;8.40;58.50;;;;;;4975858;28;20457;-88
2021/11/15 10:22:03;;;;;;;14.37;12.17;;;8.40;58.70;;;;;;4975682;28;20437;-88
2021/11/15 10:24:41;;;;;;;18.73;11.97;;;8.40;58.50;;;;;;4975116;28;20449;-88
2021/11/15 10:27:18;;;;;;;13.47;12.07;;;8.40;58.50;;;;;;4975818;28;20420;-88
2021/11/15 10:29:50;;;;;;;15.17;11.27;;;8.50;59.40;;;;;;4976191;28;20452;-87
2021/11/15 10:32:39;;;;;;;13.87;11.07;;;8.50;59.10;;;;;;4976458;28;20406;-88
2021/11/15 10:35:05;;;;;;;13.03;11.67;;;8.50;58.70;;;;;;4976427;28;20467;-87
2021/11/15 10:37:33;;;;;;;12.07;10.53;;;8.50;58.40;;;;;;4976379;28;20464;-87
2021/11/15 10:40:06;;;;;;;12.63;11.27;;;8.50;58.90;;;;;;4976184;28;20414;-87
2021/11/15 10:42:38;;;;;;;13.27;10.60;;;8.50;59.00;;;;;;4975808;28;20424;-88
2021/11/15 10:45:03;;;;;;;13.10;11.77;;;8.60;58.00;;;;;;4974938;28;20429;-88
2021/11/15 10:47:36;;;;;;;13.17;11.80;;;8.50;57.70;;;;;;4974641;28;20426;-90
2021/11/15 10:50:28;;;;;;;13.47;12.03;;;8.60;58.40;;;;;;4975510;28;20185;-87
2021/11/15 10:53:01;;;;;;;13.90;12.37;;;8.50;58.50;;;;;;4975197;28;20422;-88
2021/11/15 10:55:34;;;;;;;13.63;11.80;;;8.50;58.40;;;;;;4974999;28;20422;-88
2021/11/15 10:58:00;;;;;;;13.93;11.80;;;8.50;58.40;;;;;;4976608;28;20414;-87
2021/11/15 11:00:36;;;;;;;21.10;11.87;;;8.60;59.10;;;;;;4974912;28;20568;-88
2021/11/15 11:03:10;;;;;;;14.53;11.23;;;8.60;59.00;;;;;;4975490;28;20170;-87
2021/11/15 11:05:38;;;;;;;15.10;11.40;;;8.50;58.40;;;;;;4975338;28;20410;-88
2021/11/15 11:08:18;;;;;;;18.60;14.20;;;8.50;59.70;;;;;;4976206;28;20417;-87
2021/11/15 11:11:07;;;;;;;17.00;14.57;;;8.60;59.70;;;;;;4975960;28;20911;-88
2021/11/15 11:13:49;;;;;;;20.43;16.47;;;8.60;58.80;;;;;;4975459;28;21040;-88
2021/11/15 11:16:17;;;;;;;13.73;12.33;;;8.60;58.50;;;;;;4974971;28;20414;-88
2021/11/15 11:18:49;;;;;;;14.37;11.47;;;8.60;58.10;;;;;;4975547;28;20438;-87
2021/11/15 11:21:45;;;;;;;14.97;13.37;;;8.60;57.90;;;;;;4975960;28;20474;-88
2021/11/15 11:26:57;;;;;;;15.07;13.07;;;8.60;57.80;;;;;;4976683;28;20440;-88
2021/11/15 11:29:29;;;;;;;16.80;14.47;;;8.60;57.90;;;;;;4975240;28;20422;-87
2021/11/15 11:32:00;;;;;;;15.07;13.47;;;8.70;58.40;;;;;;4975213;28;20425;-88
2021/11/15 11:34:26;;;;;;;16.30;13.50;;;8.70;58.00;;;;;;4974767;28;20461;-87
2021/11/15 11:36:52;;;;;;;18.00;15.27;;;8.70;58.20;;;;;;4974070;28;20414;-88
2021/11/15 11:39:21;;;;;;;15.10;12.10;;;8.70;57.50;;;;;;4974357;28;20421;-88
2021/11/15 11:41:54;;;;;;;14.13;12.40;;;8.70;57.20;;;;;;4974683;28;20422;-88
2021/11/15 11:44:22;;;;;;;17.97;13.03;;;8.60;57.40;;;;;;4979412;28;20429;-88
2021/11/15 11:46:47;;;;;;;15.90;13.60;;;8.70;57.70;;;;;;4986337;28;20433;-87
2021/11/15 11:49:17;;;;;;;16.10;13.50;;;8.70;57.60;;;;;;4975815;28;20433;-88
2021/11/15 11:51:49;;;;;;;13.60;12.03;;;8.70;57.50;;;;;;4974864;28;20603;-88
2021/11/15 11:54:29;;;;;;;21.93;13.83;;;8.60;57.00;;;;;;4974625;28;20525;-89
2021/11/15 11:57:06;;;;;;;17.00;13.93;;;8.60;57.60;;;;;;4973677;28;20938;-88
2021/11/15 11:59:33;;;;;;;14.53;12.67;;;8.50;57.90;;;;;;4974099;28;20537;-88
2021/11/15 12:02:13;;;;;;;15.53;13.77;;;8.60;57.50;;;;;;4974106;28;20481;-87
2021/11/15 12:04:44;;;;;;;16.10;12.30;;;8.60;58.00;;;;;;4973574;28;20433;-89
2021/11/15 12:07:34;;;;;;;15.30;12.80;;;8.60;58.60;;;;;;4973792;28;20422;-88
2021/11/15 12:10:10;;;;;;;13.33;12.07;;;8.60;57.50;;;;;;4973838;28;20422;-87
2021/11/15 12:12:51;;;;;;;13.70;11.90;;;8.60;57.70;;;;;;4973366;28;20425;-86
2021/11/15 12:15:38;;;;;;;18.17;14.07;;;8.60;57.80;;;;;;4973082;28;20462;-85
2021/11/15 12:18:05;;;;;;;13.13;11.40;;;8.70;57.30;;;;;;4972795;28;20529;-85
2021/11/15 12:20:31;;;;;;;13.30;11.97;;;8.60;57.20;;;;;;4973257;28;20421;-84
2021/11/15 12:22:58;;;;;;;16.27;13.63;;;8.60;57.60;;;;;;4973281;28;20541;-87
2021/11/15 12:25:26;;;;;;;15.50;12.70;;;8.60;57.90;;;;;;4973210;28;20179;-87
2021/11/15 12:27:52;;;;;;;14.97;12.63;;;8.50;57.40;;;;;;4972907;28;20422;-87
2021/11/15 12:30:26;;;;;;;15.17;12.70;;;8.50;57.30;;;;;;4973194;28;20497;-87
2021/11/15 12:33:19;;;;;;;15.67;13.87;;;8.50;57.70;;;;;;4973074;28;20414;-86
2021/11/15 12:36:04;;;;;;;15.40;12.87;;;8.50;57.60;;;;;;4972944;28;20422;-86
2021/11/15 12:38:34;;;;;;;16.30;13.40;;;8.60;57.20;;;;;;4972756;28;20417;-86
2021/11/15 12:41:02;;;;;;;17.10;13.53;;;8.60;57.20;;;;;;4972960;28;20568;-88
2021/11/15 12:43:28;;;;;;;16.90;14.20;;;8.60;57.70;;;;;;4973541;28;20415;-84
2021/11/15 12:46:16;;;;;;;15.83;13.90;;;8.60;57.60;;;;;;4974728;28;20398;-86
2021/11/15 12:48:43;;;;;;;15.27;13.67;;;8.60;57.40;;;;;;4972705;28;20586;-88